KPIA/PIA METAR and TAF weather

Enter ICAO airport designator
Station Type Date Time Source
KPIA METAR 2020/04/05 18:54 UTC NOAA

KPIA 051854Z 09010G18KT 10SM CLR 13/M02 A3015 RMK AO2 SLP212 T01331022


Station Type Date Time Source
KPIA Decoded METAR 2020/04/05 18:54 UTC NOAA

GREATER PEORIA REGIONAL AIRPORT , IL, United States (KPIA) 40-40N 89-41W 205M
Apr 05, 2020 - 02:54 PM EDT / 2020.04.05 1854 UTC
Wind: from the E (090 degrees) at 12 MPH (10 KT) gusting to 21 MPH (18 KT):0
Visibility: 10 mile(s):0
Sky conditions: clear
Temperature: 55.9 F (13.3 C)
Dew Point: 28.0 F (-2.2 C)
Relative Humidity: 34%
Pressure (altimeter): 30.15 in. Hg (1020 hPa)
ob: KPIA 051854Z 09010G18KT 10SM CLR 13/M02 A3015 RMK AO2 SLP212 T01331022
cycle: 19

Station Type Date Time Source
KPIA TAF 2020/04/05 18:24 UTC NOAA

TAF KPIA 051723Z 0518/0618 09010KT P6SM FEW100
FM060000 12004KT P6SM SCT120
FM061300 15006KT P6SM SCT040
FM061500 17007KT P6SM BKN025

Example: see airport list